Time;durP1;ratioP1;P1;durP2;ratioP2;P2;SDS_P1;SDS_P2;PMS_P1;PMS_P2;Temp;Humidity;BMP_temperature;BMP_pressure;BME280_temperature;BME280_humidity;BME280_pressure;Samples;Min_cycle;Max_cycle;Signal;HPM_P1;HPM_P2
2023/08/06 00:02:23;;;;;;;8.30;7.50;;;14.50;99.90;;;;;;5068887;28;20039;-49
2023/08/06 00:04:49;;;;;;;9.30;7.75;;;14.60;99.90;;;;;;5069687;28;20115;-49
2023/08/06 00:07:14;;;;;;;12.07;8.00;;;14.60;99.90;;;;;;5068921;28;20505;-50
2023/08/06 00:09:40;;;;;;;8.30;7.47;;;14.60;99.90;;;;;;5068673;28;20066;-53
2023/08/06 00:12:06;;;;;;;12.38;7.88;;;14.60;99.90;;;;;;5069286;28;20635;-50
2023/08/06 00:14:31;;;;;;;10.80;8.43;;;14.60;99.90;;;;;;5068817;28;20024;-50
2023/08/06 00:16:57;;;;;;;12.63;8.82;;;14.60;99.90;;;;;;5069120;28;20045;-50
2023/08/06 00:19:22;;;;;;;10.82;9.65;;;14.50;99.90;;;;;;5068567;28;20028;-53
2023/08/06 00:21:48;;;;;;;13.20;8.68;;;14.50;99.90;;;;;;5069193;28;20189;-49
2023/08/06 00:24:14;;;;;;;10.48;8.57;;;14.50;99.90;;;;;;5068944;28;20058;-49
2023/08/06 00:26:39;;;;;;;10.13;9.10;;;14.50;99.90;;;;;;5069258;28;20044;-50
2023/08/06 00:29:05;;;;;;;11.05;9.35;;;14.50;99.90;;;;;;5068818;28;20563;-52
2023/08/06 00:31:31;;;;;;;12.63;8.40;;;14.50;99.90;;;;;;5069352;28;20141;-52
2023/08/06 00:33:56;;;;;;;15.57;9.65;;;14.50;99.90;;;;;;5069597;28;20040;-50
2023/08/06 00:36:22;;;;;;;11.65;8.77;;;14.40;99.90;;;;;;5070782;28;20036;-50
2023/08/06 00:38:47;;;;;;;10.43;8.38;;;14.40;99.90;;;;;;5072577;28;20035;-53
2023/08/06 00:41:13;;;;;;;11.50;7.97;;;14.50;99.90;;;;;;5073403;28;20401;-51
2023/08/06 00:43:39;;;;;;;8.35;7.40;;;14.50;99.90;;;;;;5073109;28;20037;-52
2023/08/06 00:46:05;;;;;;;13.45;7.97;;;14.50;99.90;;;;;;5073359;28;20036;-50
2023/08/06 00:48:31;;;;;;;8.75;7.85;;;14.50;99.90;;;;;;5072453;28;20553;-50
2023/08/06 00:50:56;;;;;;;;;;;14.50;99.90;;;;;;5073435;28;20469;-50
2023/08/06 00:53:22;;;;;;;9.02;7.95;;;14.50;99.90;;;;;;5072454;28;19921;-50
2023/08/06 00:55:48;;;;;;;11.60;9.10;;;14.50;99.90;;;;;;5072938;28;20033;-50
2023/08/06 00:58:15;;;;;;;;;;;14.50;99.90;;;;;;5072935;28;20033;-50
2023/08/06 01:00:40;;;;;;;9.25;8.43;;;14.50;99.90;;;;;;5072998;28;19939;-50
2023/08/06 01:03:06;;;;;;;9.52;8.25;;;14.50;99.90;;;;;;5072860;28;20497;-50
2023/08/06 01:05:32;;;;;;;11.07;7.90;;;14.40;99.90;;;;;;5073551;28;20116;-51
2023/08/06 01:08:19;;;;;;;9.95;8.43;;;14.40;99.90;;;;;;5072042;28;20048;-54
2023/08/06 01:11:13;;;;;;;12.48;7.68;;;14.30;99.90;;;;;;5072796;28;20490;-50
2023/08/06 01:13:47;;;;;;;9.93;8.90;;;14.30;99.90;;;;;;5072888;28;20063;-51
2023/08/06 01:16:16;;;;;;;10.38;8.57;;;14.30;99.90;;;;;;5072878;28;20588;-50
2023/08/06 01:18:43;;;;;;;13.15;7.93;;;14.30;99.90;;;;;;5071750;28;20600;-49
2023/08/06 01:21:09;;;;;;;12.63;8.57;;;14.30;99.90;;;;;;5072499;28;20047;-50
2023/08/06 01:23:34;;;;;;;10.77;7.97;;;14.20;99.90;;;;;;5072667;28;20028;-50
2023/08/06 01:26:09;;;;;;;9.77;8.38;;;14.20;99.90;;;;;;5072071;28;20037;-53
2023/08/06 01:29:12;;;;;;;11.95;9.00;;;14.20;99.90;;;;;;5071979;28;20489;-50
2023/08/06 01:31:39;;;;;;;10.13;8.98;;;14.20;99.90;;;;;;5060551;28;20057;-51
2023/08/06 01:34:05;;;;;;;;;;;14.20;99.90;;;;;;5072479;28;20036;-50
2023/08/06 01:36:32;;;;;;;12.13;8.82;;;14.20;99.90;;;;;;5071750;28;20389;-50
2023/08/06 01:38:58;;;;;;;9.95;8.95;;;14.20;99.90;;;;;;5071513;28;20059;-50
2023/08/06 01:41:23;;;;;;;10.18;8.05;;;14.20;99.90;;;;;;5070918;28;20501;-52
2023/08/06 01:43:49;;;;;;;9.60;8.43;;;14.20;99.90;;;;;;5071534;28;20024;-50
2023/08/06 01:46:14;;;;;;;13.90;8.20;;;14.20;99.90;;;;;;5072017;28;20406;-50
2023/08/06 01:48:40;;;;;;;10.38;7.50;;;14.30;99.90;;;;;;5070092;28;20029;-54
2023/08/06 01:51:06;;;;;;;10.35;8.35;;;14.30;99.90;;;;;;5071736;28;20043;-51
2023/08/06 01:53:32;;;;;;;9.23;8.13;;;14.30;99.90;;;;;;5071438;28;20060;-54
2023/08/06 01:55:58;;;;;;;10.23;7.50;;;14.30;99.90;;;;;;5071283;28;20048;-53
2023/08/06 01:58:23;;;;;;;11.63;7.88;;;14.30;99.90;;;;;;5071797;28;20029;-49
2023/08/06 02:00:49;;;;;;;9.30;7.60;;;14.30;99.90;;;;;;5071705;28;20029;-50
2023/08/06 02:03:15;;;;;;;9.10;8.20;;;14.30;99.90;;;;;;5072410;28;20079;-50
2023/08/06 02:05:40;;;;;;;11.15;8.15;;;14.30;99.90;;;;;;5071623;28;20071;-53
2023/08/06 02:08:06;;;;;;;9.50;8.57;;;14.30;99.90;;;;;;5071431;28;20138;-50
2023/08/06 02:10:32;;;;;;;10.77;7.65;;;14.30;99.90;;;;;;5071126;28;20194;-50
2023/08/06 02:12:57;;;;;;;12.65;8.20;;;14.30;99.90;;;;;;5071375;28;20520;-50
2023/08/06 02:15:23;;;;;;;10.75;8.25;;;14.30;99.90;;;;;;5071107;28;20036;-49
2023/08/06 02:17:49;;;;;;;10.82;8.43;;;14.30;99.90;;;;;;5071026;28;20044;-50
2023/08/06 02:20:17;;;;;;;12.63;8.50;;;14.30;99.90;;;;;;5071270;28;20036;-49
2023/08/06 02:22:43;;;;;;;9.23;8.38;;;14.30;99.90;;;;;;5071426;28;20402;-49
2023/08/06 02:25:08;;;;;;;11.45;7.75;;;14.30;99.90;;;;;;5070407;28;20041;-49
2023/08/06 02:27:34;;;;;;;9.63;8.63;;;14.40;99.90;;;;;;5062576;28;20441;-50
2023/08/06 02:30:00;;;;;;;9.25;8.43;;;14.40;99.90;;;;;;5085203;28;20501;-52
2023/08/06 02:32:25;;;;;;;16.85;9.15;;;14.40;99.90;;;;;;5071488;28;20063;-50
2023/08/06 02:34:51;;;;;;;9.82;8.45;;;14.40;99.90;;;;;;5070950;28;20115;-51
2023/08/06 02:37:16;;;;;;;15.32;10.45;;;14.40;99.90;;;;;;5070921;28;20039;-50
2023/08/06 02:39:43;;;;;;;10.40;9.38;;;14.40;99.90;;;;;;5070452;28;20071;-52
2023/08/06 02:42:08;;;;;;;;;;;14.40;99.90;;;;;;5071552;28;20076;-52
2023/08/06 02:44:34;;;;;;;10.27;8.77;;;14.40;99.90;;;;;;5071103;28;19959;-50
2023/08/06 02:47:00;;;;;;;;;;;14.40;99.90;;;;;;5071263;28;20048;-50
2023/08/06 02:49:26;;;;;;;10.57;8.88;;;14.40;99.90;;;;;;5071073;28;19924;-52
2023/08/06 02:51:51;;;;;;;8.98;8.18;;;14.40;99.90;;;;;;5070388;28;20032;-52
2023/08/06 02:54:18;;;;;;;10.57;9.32;;;14.40;99.90;;;;;;5070451;28;20098;-53
2023/08/06 02:56:44;;;;;;;10.05;8.20;;;14.40;99.90;;;;;;5070466;28;20044;-50
2023/08/06 02:59:11;;;;;;;9.98;9.02;;;14.40;99.90;;;;;;5070643;28;20043;-50
2023/08/06 03:01:37;;;;;;;14.73;9.45;;;14.40;99.90;;;;;;5070612;28;20045;-50
2023/08/06 03:04:03;;;;;;;14.57;8.45;;;14.30;99.90;;;;;;5070779;28;20086;-50
2023/08/06 03:06:28;;;;;;;11.57;8.93;;;14.40;99.90;;;;;;5070140;28;20036;-50
2023/08/06 03:08:54;;;;;;;10.05;9.07;;;14.30;99.90;;;;;;5069768;28;20037;-50
2023/08/06 03:11:20;;;;;;;11.23;9.13;;;14.40;99.90;;;;;;5070121;28;20081;-51
2023/08/06 03:13:46;;;;;;;10.43;9.32;;;14.40;99.90;;;;;;5070594;28;20727;-50
2023/08/06 03:16:11;;;;;;;11.63;9.60;;;14.40;99.90;;;;;;5070169;28;20032;-51
2023/08/06 03:18:37;;;;;;;10.38;9.30;;;14.30;99.90;;;;;;5069877;28;20109;-50
2023/08/06 03:21:03;;;;;;;13.60;9.13;;;14.40;99.90;;;;;;5070200;28;20029;-49
2023/08/06 03:23:29;;;;;;;12.68;9.90;;;14.30;99.90;;;;;;5069869;28;20415;-50
2023/08/06 03:25:54;;;;;;;14.32;10.35;;;14.40;99.90;;;;;;5069794;28;20493;-50
2023/08/06 03:28:20;;;;;;;14.65;9.52;;;14.30;99.90;;;;;;5069959;28;20044;-50
2023/08/06 03:30:45;;;;;;;10.45;9.25;;;14.40;99.90;;;;;;5069956;28;20458;-50
2023/08/06 03:33:11;;;;;;;13.93;10.02;;;14.40;99.90;;;;;;5070056;28;20040;-52
2023/08/06 03:35:36;;;;;;;12.02;9.93;;;14.30;99.90;;;;;;5069988;28;20098;-50
2023/08/06 03:38:02;;;;;;;12.82;9.60;;;14.40;99.90;;;;;;5069180;28;20490;-50
2023/08/06 03:40:28;;;;;;;12.90;10.32;;;14.40;99.90;;;;;;5070235;28;20032;-52
2023/08/06 03:42:53;;;;;;;12.30;9.55;;;14.40;99.90;;;;;;5069986;28;20048;-50
2023/08/06 03:45:19;;;;;;;11.65;10.50;;;14.40;99.90;;;;;;5069854;28;20047;-50
2023/08/06 03:47:44;;;;;;;11.32;10.15;;;14.40;99.90;;;;;;5069676;28;20497;-50
2023/08/06 03:50:10;;;;;;;12.18;9.45;;;14.40;99.90;;;;;;5070388;28;20046;-53
2023/08/06 03:52:36;;;;;;;12.57;9.95;;;14.40;99.90;;;;;;5069271;28;20390;-50
2023/08/06 03:55:01;;;;;;;10.75;9.75;;;14.40;99.90;;;;;;5069910;28;20052;-50
2023/08/06 03:57:27;;;;;;;11.75;9.95;;;14.40;99.90;;;;;;5069326;28;20044;-50
2023/08/06 03:59:52;;;;;;;11.57;10.38;;;14.40;99.90;;;;;;5069596;28;20115;-50
2023/08/06 04:02:18;;;;;;;11.70;10.50;;;14.40;99.90;;;;;;5068993;28;20391;-50
2023/08/06 04:04:43;;;;;;;12.13;9.73;;;14.40;99.90;;;;;;5069284;28;20040;-50
2023/08/06 04:07:09;;;;;;;12.02;10.82;;;14.50;99.90;;;;;;5068576;28;20486;-53
2023/08/06 04:09:54;;;;;;;16.05;10.57;;;14.40;99.90;;;;;;5069153;28;20512;-50
2023/08/06 04:12:20;;;;;;;13.75;11.13;;;14.40;99.90;;;;;;5071660;28;20447;-49
2023/08/06 04:14:45;;;;;;;10.15;9.23;;;14.40;99.90;;;;;;5073528;28;20040;-51
2023/08/06 04:17:11;;;;;;;12.77;10.15;;;14.40;99.90;;;;;;5073443;28;20033;-50
2023/08/06 04:19:37;;;;;;;12.32;10.55;;;14.40;99.90;;;;;;5073414;28;20024;-51
2023/08/06 04:22:02;;;;;;;10.93;9.88;;;14.40;99.90;;;;;;5073015;28;20037;-50
2023/08/06 04:24:28;;;;;;;14.10;10.13;;;14.40;99.90;;;;;;5072679;28;20315;-50
2023/08/06 04:26:53;;;;;;;10.95;9.70;;;14.40;99.90;;;;;;5073174;28;20041;-50
2023/08/06 04:29:19;;;;;;;10.85;9.75;;;14.50;99.90;;;;;;5073459;28;20079;-50
2023/08/06 04:31:44;;;;;;;11.68;9.57;;;14.50;99.90;;;;;;5073040;28;20536;-51
2023/08/06 04:34:10;;;;;;;13.20;10.73;;;14.50;99.90;;;;;;5073968;28;20058;-50
2023/08/06 04:36:36;;;;;;;13.85;9.55;;;14.50;99.90;;;;;;5072854;28;20185;-49
2023/08/06 04:39:01;;;;;;;11.77;10.68;;;14.60;99.90;;;;;;5073330;28;20107;-50
2023/08/06 04:41:27;;;;;;;12.15;10.88;;;14.60;99.90;;;;;;5073259;28;20428;-53
2023/08/06 04:43:52;;;;;;;12.55;11.27;;;14.60;99.90;;;;;;5073320;28;20043;-50
2023/08/06 04:46:18;;;;;;;12.27;10.48;;;14.60;99.90;;;;;;5072954;28;20040;-50
2023/08/06 04:48:43;;;;;;;11.73;10.73;;;14.60;99.90;;;;;;5072826;28;20602;-49
2023/08/06 04:51:09;;;;;;;13.68;10.85;;;14.60;99.90;;;;;;5072789;28;20090;-50
2023/08/06 04:53:35;;;;;;;12.02;10.75;;;14.60;99.90;;;;;;5072922;28;20405;-49
2023/08/06 04:56:00;;;;;;;12.23;11.13;;;14.70;99.90;;;;;;5073051;28;20094;-50
2023/08/06 04:58:26;;;;;;;13.18;11.27;;;14.70;99.90;;;;;;5072643;28;20519;-51
2023/08/06 05:00:53;;;;;;;12.85;11.57;;;14.70;99.90;;;;;;5073014;28;20075;-51
2023/08/06 05:03:19;;;;;;;13.60;11.10;;;14.80;99.90;;;;;;5088231;28;20055;-50
2023/08/06 05:05:46;;;;;;;13.98;12.23;;;14.80;99.90;;;;;;5072472;28;20044;-49
2023/08/06 05:08:18;;;;;;;14.05;11.15;;;14.80;99.90;;;;;;5072190;28;20509;-51
2023/08/06 05:10:44;;;;;;;13.15;11.85;;;14.80;99.90;;;;;;5072777;28;20044;-50
2023/08/06 05:13:10;;;;;;;13.98;11.25;;;14.90;99.90;;;;;;5072462;28;20082;-50
2023/08/06 05:15:35;;;;;;;12.82;11.40;;;14.90;99.90;;;;;;5072474;28;20127;-50
2023/08/06 05:18:01;;;;;;;12.93;11.63;;;15.00;99.90;;;;;;5071449;28;20028;-52
2023/08/06 05:20:26;;;;;;;12.00;10.90;;;15.10;99.90;;;;;;5072175;28;20101;-53
2023/08/06 05:22:52;;;;;;;12.77;11.48;;;15.10;99.90;;;;;;5072170;28;20060;-50
2023/08/06 05:25:18;;;;;;;12.57;11.05;;;15.10;99.90;;;;;;5072116;28;20052;-50
2023/08/06 05:27:43;;;;;;;15.00;11.10;;;15.10;99.90;;;;;;5071536;28;20032;-55
2023/08/06 05:30:10;;;;;;;14.50;11.57;;;15.10;99.90;;;;;;5072448;28;20033;-50
2023/08/06 05:32:35;;;;;;;12.05;10.95;;;15.10;99.90;;;;;;5072202;28;20306;-54
2023/08/06 05:35:01;;;;;;;13.52;11.93;;;15.10;99.90;;;;;;5072562;28;20036;-50
2023/08/06 05:37:26;;;;;;;16.70;11.68;;;15.10;99.90;;;;;;5072119;28;20047;-50
2023/08/06 05:39:52;;;;;;;12.73;11.43;;;15.10;99.90;;;;;;5072817;28;20039;-51
2023/08/06 05:42:17;;;;;;;13.55;12.15;;;15.10;99.90;;;;;;5071991;28;20044;-52
2023/08/06 05:44:43;;;;;;;17.35;14.00;;;15.10;99.90;;;;;;5072673;28;20047;-50
2023/08/06 05:47:09;;;;;;;18.33;15.77;;;15.10;99.90;;;;;;5071413;28;20049;-50
2023/08/06 05:49:34;;;;;;;19.20;17.05;;;15.10;99.90;;;;;;5071822;28;20040;-50
2023/08/06 05:52:00;;;;;;;23.17;19.05;;;15.10;99.90;;;;;;5071995;28;20045;-52
2023/08/06 05:54:25;;;;;;;20.58;18.48;;;15.10;99.90;;;;;;5071842;28;20040;-50
2023/08/06 05:56:51;;;;;;;20.23;18.08;;;15.00;99.90;;;;;;5071834;28;20040;-50
2023/08/06 05:59:17;;;;;;;23.52;20.42;;;15.10;99.90;;;;;;5068830;28;20040;-53
2023/08/06 06:01:42;;;;;;;23.75;20.23;;;15.10;99.90;;;;;;5071160;28;20040;-50
2023/08/06 06:04:08;;;;;;;21.50;19.20;;;15.00;99.90;;;;;;5071287;28;20040;-50
2023/08/06 06:06:33;;;;;;;23.60;18.85;;;15.00;99.90;;;;;;5071493;28;20032;-50
2023/08/06 06:08:59;;;;;;;23.90;19.42;;;15.10;99.90;;;;;;5071159;28;20520;-50
2023/08/06 06:11:24;;;;;;;23.63;19.83;;;15.10;99.90;;;;;;5071063;28;20044;-51
2023/08/06 06:13:51;;;;;;;20.63;18.52;;;15.10;99.90;;;;;;5064013;28;20035;-51
2023/08/06 06:16:16;;;;;;;22.58;20.08;;;15.10;99.90;;;;;;5068453;28;20048;-53
2023/08/06 06:18:42;;;;;;;20.45;18.30;;;15.10;99.90;;;;;;5068693;28;20032;-50
2023/08/06 06:21:07;;;;;;;19.65;17.55;;;15.10;99.90;;;;;;5062997;28;20047;-52
2023/08/06 06:23:33;;;;;;;19.63;17.63;;;15.20;99.90;;;;;;5065019;28;20036;-50
2023/08/06 06:26:00;;;;;;;23.42;18.45;;;15.20;99.90;;;;;;5056867;28;20071;-53
2023/08/06 06:28:25;;;;;;;18.10;15.00;;;15.20;99.90;;;;;;5067818;28;20041;-51
2023/08/06 06:30:51;;;;;;;21.42;17.75;;;15.30;99.90;;;;;;5063291;28;20031;-51
2023/08/06 06:33:17;;;;;;;;;;;15.30;99.90;;;;;;5062448;28;20087;-51
2023/08/06 06:35:43;;;;;;;20.73;18.05;;;15.40;99.90;;;;;;5063302;28;19943;-52
2023/08/06 06:38:08;;;;;;;21.00;18.35;;;15.40;99.90;;;;;;5070451;28;20469;-49
2023/08/06 06:40:34;;;;;;;22.17;17.80;;;15.40;99.90;;;;;;5070107;28;20037;-50
2023/08/06 06:42:59;;;;;;;23.50;18.25;;;15.50;99.90;;;;;;5067181;28;20040;-51
2023/08/06 06:45:25;;;;;;;19.92;17.20;;;15.50;99.90;;;;;;5070092;28;20055;-50
2023/08/06 06:47:50;;;;;;;20.35;18.25;;;15.60;99.90;;;;;;5069839;28;20047;-50
2023/08/06 06:50:16;;;;;;;26.98;19.70;;;15.60;99.90;;;;;;5070442;28;20384;-49
2023/08/06 06:52:42;;;;;;;22.60;20.27;;;15.70;99.90;;;;;;5070517;28;20553;-53
2023/08/06 06:55:10;;;;;;;22.65;19.48;;;15.70;99.90;;;;;;5067676;28;20033;-50
2023/08/06 06:57:36;;;;;;;22.92;20.58;;;15.80;99.90;;;;;;5070258;28;20564;-52
2023/08/06 07:00:01;;;;;;;22.30;20.20;;;15.90;99.90;;;;;;5069908;28;20120;-50
2023/08/06 07:02:27;;;;;;;22.02;19.75;;;15.90;99.90;;;;;;5070384;28;20051;-50
2023/08/06 07:04:53;;;;;;;21.50;19.38;;;15.90;99.90;;;;;;5070436;28;20428;-51
2023/08/06 07:07:18;;;;;;;21.70;19.38;;;16.00;99.90;;;;;;5070257;28;20079;-50
2023/08/06 07:09:44;;;;;;;22.95;19.23;;;16.10;99.90;;;;;;5070187;28;20044;-50
2023/08/06 07:12:10;;;;;;;21.92;19.83;;;16.10;99.90;;;;;;5070247;28;20044;-50
2023/08/06 07:14:36;;;;;;;18.83;17.08;;;16.10;99.90;;;;;;5067647;28;20490;-50
2023/08/06 07:17:01;;;;;;;20.77;18.65;;;16.20;99.90;;;;;;5069659;28;20451;-52
2023/08/06 07:19:27;;;;;;;16.58;14.93;;;16.20;99.90;;;;;;5069390;28;20409;-50
2023/08/06 07:21:52;;;;;;;19.75;17.52;;;16.20;99.90;;;;;;5069109;28;20642;-50
2023/08/06 07:24:18;;;;;;;19.35;17.35;;;16.30;99.90;;;;;;5066616;28;20079;-50
2023/08/06 07:26:43;;;;;;;18.63;16.25;;;16.30;99.90;;;;;;5069495;28;20060;-54
2023/08/06 07:29:09;;;;;;;16.40;14.90;;;16.30;99.90;;;;;;5068487;28;20037;-50
2023/08/06 07:31:35;;;;;;;16.20;14.65;;;16.40;99.90;;;;;;5068135;28;20447;-50
2023/08/06 07:34:00;;;;;;;16.60;14.20;;;16.40;99.90;;;;;;5068067;28;20031;-50
2023/08/06 07:36:26;;;;;;;15.55;14.15;;;16.40;99.90;;;;;;5068202;28;20170;-53
2023/08/06 07:38:55;;;;;;;16.15;14.75;;;16.50;99.90;;;;;;5068914;28;20032;-50
2023/08/06 07:41:22;;;;;;;17.13;15.30;;;16.50;99.90;;;;;;5067583;28;20402;-50
2023/08/06 07:43:48;;;;;;;16.05;14.43;;;16.50;99.90;;;;;;5062776;28;20041;-53
2023/08/06 07:46:13;;;;;;;16.23;14.73;;;16.50;99.90;;;;;;5068709;28;20033;-50
2023/08/06 07:48:39;;;;;;;15.50;14.00;;;16.50;99.90;;;;;;5069270;28;20509;-50
2023/08/06 07:51:04;;;;;;;15.30;13.80;;;16.50;99.90;;;;;;5069117;28;20055;-52
2023/08/06 07:53:30;;;;;;;15.63;13.98;;;16.50;99.90;;;;;;5066933;28;20089;-52
2023/08/06 07:55:56;;;;;;;17.98;16.10;;;16.50;99.90;;;;;;5062425;28;20040;-53
2023/08/06 07:58:23;;;;;;;;;;;16.50;99.90;;;;;;5062070;28;20487;-53
2023/08/06 08:00:49;;;;;;;15.88;14.25;;;16.50;99.90;;;;;;5069481;28;19916;-50
2023/08/06 08:03:15;;;;;;;19.05;14.38;;;16.50;99.90;;;;;;5070258;28;20102;-50
2023/08/06 08:05:42;;;;;;;15.20;13.57;;;16.50;99.90;;;;;;5066554;28;20111;-50
2023/08/06 08:08:08;;;;;;;12.85;11.75;;;16.50;99.90;;;;;;5056108;28;20048;-52
2023/08/06 08:10:34;;;;;;;13.68;12.35;;;16.50;99.90;;;;;;5054712;28;20314;-50
2023/08/06 08:13:01;;;;;;;71.35;15.82;;;16.50;99.90;;;;;;5053717;28;20041;-53
2023/08/06 08:15:29;;;;;;;12.40;11.30;;;16.60;99.90;;;;;;5056844;28;20045;-52
2023/08/06 08:17:54;;;;;;;10.80;9.88;;;16.60;99.90;;;;;;5065686;28;20060;-52
2023/08/06 08:20:20;;;;;;;12.77;11.15;;;16.70;99.90;;;;;;5069351;28;20064;-49
2023/08/06 08:22:46;;;;;;;11.75;10.65;;;16.80;99.90;;;;;;5070126;28;20128;-50
2023/08/06 08:25:11;;;;;;;11.02;10.18;;;16.80;99.90;;;;;;5069481;28;20072;-51
2023/08/06 08:27:37;;;;;;;13.30;12.00;;;16.90;99.90;;;;;;5067351;28;20032;-54
2023/08/06 08:30:03;;;;;;;11.50;10.50;;;17.00;99.90;;;;;;5065387;28;20132;-52
2023/08/06 08:32:28;;;;;;;10.85;9.63;;;17.00;99.90;;;;;;5067687;28;20033;-52
2023/08/06 08:34:54;;;;;;;11.48;10.27;;;17.10;99.90;;;;;;5063920;28;20086;-50
2023/08/06 08:37:19;;;;;;;11.43;10.32;;;17.20;99.90;;;;;;5062578;28;20039;-51
2023/08/06 08:39:45;;;;;;;11.07;9.95;;;17.30;99.90;;;;;;5060517;28;20461;-50
2023/08/06 08:42:11;;;;;;;12.07;10.70;;;17.40;99.90;;;;;;5056213;28;20046;-54
2023/08/06 08:44:39;;;;;;;10.82;9.82;;;17.40;99.90;;;;;;5054619;28;20519;-51
2023/08/06 08:47:11;;;;;;;11.07;10.05;;;17.50;99.90;;;;;;5063584;28;20056;-51
2023/08/06 08:49:37;;;;;;;10.63;9.52;;;17.60;99.90;;;;;;5056524;28;20036;-51
2023/08/06 08:52:06;;;;;;;10.93;9.85;;;17.60;99.90;;;;;;5064630;28;20047;-50
2023/08/06 08:54:34;;;;;;;14.07;10.32;;;17.70;99.90;;;;;;5064783;28;20037;-51
2023/08/06 08:57:00;;;;;;;9.95;9.05;;;17.70;99.90;;;;;;5058803;28;20037;-51
2023/08/06 08:59:26;;;;;;;12.35;9.48;;;17.70;99.90;;;;;;5065998;28;20043;-52
2023/08/06 09:01:53;;;;;;;10.75;9.85;;;17.80;99.90;;;;;;5059337;28;20055;-53
2023/08/06 09:04:19;;;;;;;11.32;9.77;;;17.80;99.90;;;;;;5065455;28;20041;-50
2023/08/06 09:06:49;;;;;;;9.43;8.63;;;17.90;99.90;;;;;;5065394;28;20037;-51
2023/08/06 09:09:37;;;;;;;9.43;8.57;;;18.00;99.90;;;;;;5066280;28;20486;-55
2023/08/06 09:12:11;;;;;;;9.50;8.70;;;18.10;99.90;;;;;;5071241;28;20044;-53
2023/08/06 09:14:36;;;;;;;12.20;8.15;;;18.20;99.90;;;;;;5071934;28;20111;-52
2023/08/06 09:17:04;;;;;;;9.07;8.38;;;18.30;99.90;;;;;;5072503;28;20111;-51
2023/08/06 09:19:29;;;;;;;9.10;8.30;;;18.30;99.90;;;;;;5065926;28;20128;-51
2023/08/06 09:21:56;;;;;;;8.57;7.75;;;18.40;99.90;;;;;;5069681;28;20115;-55
2023/08/06 09:24:22;;;;;;;;;;;18.40;99.90;;;;;;5061033;28;20040;-54
2023/08/06 09:26:47;;;;;;;8.27;7.43;;;18.50;99.90;;;;;;5063596;28;19936;-54
2023/08/06 09:29:14;;;;;;;8.00;7.30;;;18.50;99.90;;;;;;5061229;28;20058;-51
2023/08/06 09:31:44;;;;;;;8.52;7.47;;;18.60;99.90;;;;;;5067772;28;20090;-55
2023/08/06 09:34:22;;;;;;;8.68;7.80;;;18.60;99.90;;;;;;5068658;28;20032;-53
2023/08/06 09:36:53;;;;;;;7.80;7.07;;;18.70;99.90;;;;;;5071947;28;20036;-52
2023/08/06 09:39:20;;;;;;;7.57;7.07;;;18.70;99.90;;;;;;5070073;28;20033;-53
2023/08/06 09:41:48;;;;;;;8.00;6.05;;;18.80;99.90;;;;;;5071900;28;20549;-52
2023/08/06 09:44:18;;;;;;;7.22;6.63;;;18.90;99.90;;;;;;5071920;28;20036;-51
2023/08/06 09:47:03;;;;;;;7.05;6.28;;;18.90;99.90;;;;;;5071478;28;20060;-54
2023/08/06 09:49:42;;;;;;;5.90;5.40;;;19.00;99.90;;;;;;5069882;28;20051;-52
2023/08/06 09:52:14;;;;;;;6.78;4.70;;;19.10;99.90;;;;;;5071469;28;20044;-52
2023/08/06 09:54:41;;;;;;;5.47;5.07;;;19.20;99.90;;;;;;5069409;28;20068;-55
2023/08/06 09:57:08;;;;;;;6.22;5.65;;;19.30;99.90;;;;;;5068716;28;20111;-53
2023/08/06 09:59:35;;;;;;;6.10;5.68;;;19.40;99.90;;;;;;5070813;28;20088;-52
2023/08/06 10:02:02;;;;;;;5.85;4.82;;;19.50;99.90;;;;;;5069721;28;20478;-52
2023/08/06 10:04:29;;;;;;;6.10;5.50;;;19.60;99.90;;;;;;5069640;28;20044;-56
2023/08/06 10:06:54;;;;;;;5.97;4.97;;;19.70;99.90;;;;;;5070124;28;20036;-52
2023/08/06 10:09:20;;;;;;;5.15;4.75;;;19.90;99.90;;;;;;5070104;28;20036;-55
2023/08/06 10:11:50;;;;;;;;;;;20.00;99.90;;;;;;5071632;28;20063;-53
2023/08/06 10:14:21;;;;;;;5.88;5.38;;;20.20;99.90;;;;;;5069712;28;20401;-52
2023/08/06 10:16:47;;;;;;;5.90;5.40;;;20.30;99.90;;;;;;5071260;28;20048;-54
2023/08/06 10:19:15;;;;;;;5.07;4.78;;;20.50;99.90;;;;;;5070651;28;20044;-54
2023/08/06 10:21:41;;;;;;;5.10;4.80;;;20.60;99.90;;;;;;5066449;28;20512;-52
2023/08/06 10:24:14;;;;;;;5.80;5.38;;;20.70;99.90;;;;;;5067896;28;20028;-54
2023/08/06 10:26:40;;;;;;;5.07;4.68;;;20.70;99.90;;;;;;5065076;28;20055;-52
2023/08/06 10:29:36;;;;;;;5.70;3.60;;;20.80;99.90;;;;;;5070744;28;20036;-53
2023/08/06 10:32:01;;;;;;;3.63;3.40;;;20.80;99.90;;;;;;5061908;28;20440;-53
2023/08/06 10:34:45;;;;;;;;;;;20.80;99.90;;;;;;5071769;28;20056;-52
2023/08/06 10:37:15;;;;;;;4.30;3.65;;;20.80;99.90;;;;;;5065033;28;20361;-52
2023/08/06 10:39:49;;;;;;;4.05;3.58;;;20.90;99.90;;;;;;5071099;28;20064;-52
2023/08/06 10:42:28;;;;;;;4.05;3.35;;;21.10;99.90;;;;;;5059892;28;20040;-54
2023/08/06 10:45:17;;;;;;;3.72;3.40;;;21.20;99.90;;;;;;5064134;28;20115;-54
2023/08/06 10:47:43;;;;;;;3.20;2.90;;;21.40;99.90;;;;;;5061375;28;20460;-53
2023/08/06 10:50:13;;;;;;;4.97;4.00;;;21.50;99.90;;;;;;5071185;28;20040;-53
2023/08/06 10:52:39;;;;;;;8.93;3.53;;;21.70;99.90;;;;;;5069135;28;20040;-55
2023/08/06 10:55:05;;;;;;;;;;;21.80;99.90;;;;;;5066910;28;20537;-57
2023/08/06 10:57:30;;;;;;;2.85;2.50;;;21.90;99.90;;;;;;5060363;28;19916;-55
2023/08/06 10:59:56;;;;;;;;;;;21.90;99.90;;;;;;5062954;28;20549;-53
2023/08/06 11:02:21;;;;;;;3.55;2.08;;;21.90;99.90;;;;;;5063004;28;19924;-53
2023/08/06 11:04:48;;;;;;;;;;;22.00;99.90;;;;;;5068832;28;20115;-54
2023/08/06 11:07:13;;;;;;;3.80;2.70;;;22.20;99.90;;;;;;5062495;28;20370;-54
2023/08/06 11:09:39;;;;;;;;;;;22.30;99.90;;;;;;5070265;28;20048;-55
2023/08/06 11:12:10;;;;;;;3.13;1.85;;;22.40;99.90;;;;;;5068266;28;20007;-53
2023/08/06 11:14:35;;;;;;;3.47;2.13;;;22.50;99.90;;;;;;5063879;28;20036;-55
2023/08/06 11:17:01;;;;;;;;;;;22.70;99.90;;;;;;5070809;28;20165;-55
2023/08/06 11:19:27;;;;;;;1.98;1.20;;;22.70;99.90;;;;;;5059908;28;19924;-53
2023/08/06 11:21:52;;;;;;;3.17;1.60;;;22.80;99.90;;;;;;5066186;28;20094;-53
2023/08/06 11:24:18;;;;;;;;;;;22.80;99.90;;;;;;5070465;28;20045;-56
2023/08/06 11:26:44;;;;;;;4.78;2.03;;;22.70;99.90;;;;;;5069645;28;19916;-53
2023/08/06 11:29:10;;;;;;;2.53;1.48;;;22.70;99.90;;;;;;5067558;28;20295;-53
2023/08/06 11:31:36;;;;;;;2.65;2.10;;;22.60;99.90;;;;;;5067419;28;20036;-54
2023/08/06 11:34:01;;;;;;;;;;;22.50;99.90;;;;;;5070603;28;20036;-56
2023/08/06 11:36:36;;;;;;;2.38;2.17;;;22.50;99.90;;;;;;5070205;28;19939;-56
2023/08/06 11:39:05;;;;;;;2.85;1.90;;;22.60;99.90;;;;;;5066872;28;20097;-56
2023/08/06 11:41:31;;;;;;;3.05;1.88;;;22.80;99.90;;;;;;5053468;28;20486;-57
2023/08/06 11:43:56;;;;;;;;;;;23.00;99.90;;;;;;5078630;28;20044;-55
2023/08/06 11:46:23;;;;;;;1.98;1.77;;;23.10;99.90;;;;;;5067866;28;20353;-56
2023/08/06 11:48:56;;;;;;;4.90;1.08;;;23.20;99.90;;;;;;5069802;28;20076;-54
2023/08/06 11:51:28;;;;;;;2.75;1.17;;;23.30;99.90;;;;;;5067612;28;20032;-56
2023/08/06 11:53:57;;;;;;;1.60;1.25;;;23.30;99.90;;;;;;5063050;28;20036;-58
2023/08/06 11:56:23;;;;;;;1.92;1.10;;;23.30;99.90;;;;;;5070048;28;20036;-55
2023/08/06 11:58:49;;;;;;;2.70;1.30;;;23.40;99.90;;;;;;5068528;28;20032;-56
2023/08/06 12:01:15;;;;;;;2.83;1.13;;;23.50;99.90;;;;;;5061039;28;20025;-55
2023/08/06 12:03:41;;;;;;;2.75;1.42;;;23.50;99.90;;;;;;5055798;28;20036;-55
2023/08/06 12:06:10;;;;;;;1.95;0.90;;;23.50;99.90;;;;;;5065283;28;20071;-55
2023/08/06 12:08:38;;;;;;;1.27;0.93;;;23.50;99.90;;;;;;5061375;28;20039;-57
2023/08/06 12:11:03;;;;;;;2.25;1.08;;;23.50;99.90;;;;;;5067622;28;20086;-55
2023/08/06 12:13:29;;;;;;;1.55;0.90;;;23.50;99.90;;;;;;5062440;28;20037;-55
2023/08/06 12:15:57;;;;;;;1.92;1.00;;;23.50;99.90;;;;;;5063348;28;20032;-53
2023/08/06 12:18:23;;;;;;;2.33;1.52;;;23.40;99.90;;;;;;5067555;28;20032;-56
2023/08/06 12:20:48;;;;;;;2.53;1.05;;;23.20;99.90;;;;;;5065769;28;20031;-56
2023/08/06 12:23:15;;;;;;;1.27;0.90;;;23.10;99.90;;;;;;5064512;28;20097;-53
2023/08/06 12:25:41;;;;;;;4.15;1.27;;;23.00;99.90;;;;;;5064833;28;20404;-57
2023/08/06 12:28:08;;;;;;;4.40;1.33;;;22.80;99.90;;;;;;5064643;28;20043;-53
2023/08/06 12:30:34;;;;;;;2.80;1.38;;;22.60;99.90;;;;;;5067168;28;20070;-55
2023/08/06 12:32:59;;;;;;;;;;;22.50;99.90;;;;;;5071414;28;20128;-55
2023/08/06 12:35:25;;;;;;;2.63;2.30;;;22.40;99.90;;;;;;5066764;28;19989;-54
2023/08/06 12:37:54;;;;;;;2.25;1.45;;;22.20;99.90;;;;;;5073284;28;20041;-55
2023/08/06 12:40:20;;;;;;;1.67;1.42;;;22.00;99.90;;;;;;5070351;28;20083;-54
2023/08/06 12:42:46;;;;;;;2.65;0.85;;;21.90;99.90;;;;;;5073163;28;20066;-53